Time;durP1;ratioP1;P1;durP2;ratioP2;P2;SDS_P1;SDS_P2;PMS_P1;PMS_P2;Temp;Humidity;BMP_temperature;BMP_pressure;BME280_temperature;BME280_humidity;BME280_pressure;Samples;Min_cycle;Max_cycle;Signal;HPM_P1;HPM_P2
2022/01/02 00:00:22;;;;;;;5.53;2.70;;;;;;;11.45;84.32;101696.72;5091024;28;20058;-66
2022/01/02 00:02:53;;;;;;;8.77;3.60;;;;;;;11.41;84.17;101694.44;5092108;28;20098;-66
2022/01/02 00:05:22;;;;;;;4.82;2.90;;;;;;;11.40;84.28;101698.13;5090923;28;20066;-66
2022/01/02 00:08:11;;;;;;;6.32;2.88;;;;;;;11.41;85.33;101698.94;5092113;28;20035;-66
2022/01/02 00:11:00;;;;;;;6.30;2.55;;;;;;;11.40;85.05;101703.47;5064412;28;20040;-66
2022/01/02 00:13:32;;;;;;;12.00;3.60;;;;;;;11.40;84.00;101708.00;5077987;28;20048;-66
2022/01/02 00:16:04;;;;;;;6.00;2.97;;;;;;;11.39;84.21;101704.47;5092149;28;20054;-66
2022/01/02 00:18:31;;;;;;;;;;;;;;;11.46;84.99;101717.13;5092467;28;20036;-66
2022/01/02 00:20:59;;;;;;;8.98;2.85;;;;;;;11.43;83.97;101715.63;5072291;28;19922;-66
2022/01/02 00:23:30;;;;;;;5.93;3.22;;;;;;;11.47;83.99;101718.75;5091557;28;20035;-67
2022/01/02 00:26:03;;;;;;;7.18;3.05;;;;;;;11.46;83.97;101735.81;5091904;28;20044;-66
2022/01/02 00:28:30;;;;;;;10.80;3.15;;;;;;;11.48;84.17;101739.13;5089943;28;20094;-66
2022/01/02 00:30:57;;;;;;;6.55;3.20;;;;;;;11.50;83.57;101737.09;5091864;28;20098;-66
2022/01/02 00:33:23;;;;;;;7.38;2.90;;;;;;;11.53;83.80;101726.06;5072139;28;20059;-66
2022/01/02 00:35:49;;;;;;;4.72;2.95;;;;;;;11.55;83.39;101719.53;5091300;28;20499;-66
2022/01/02 00:38:20;;;;;;;8.40;3.25;;;;;;;11.58;83.71;101723.66;5091500;28;20103;-66
2022/01/02 00:40:52;;;;;;;8.10;3.22;;;;;;;11.57;83.58;101708.66;5091361;28;20032;-66
2022/01/02 00:43:25;;;;;;;7.18;3.42;;;;;;;11.58;84.13;101704.97;5091333;28;20422;-67
2022/01/02 00:45:53;;;;;;;10.07;3.03;;;;;;;11.52;84.53;101698.50;5071843;28;20025;-66
2022/01/02 00:48:31;;;;;;;11.38;4.45;;;;;;;11.52;85.73;101711.03;5071743;28;20033;-66
2022/01/02 00:51:03;;;;;;;6.53;3.10;;;;;;;11.46;86.96;101712.59;5091096;28;20023;-66
2022/01/02 00:53:32;;;;;;;;;;;;;;;11.43;86.69;101704.94;5091673;28;20406;-67
2022/01/02 00:56:00;;;;;;;20.73;6.13;;;;;;;11.35;87.83;101697.00;5091098;28;19937;-66
2022/01/02 00:58:37;;;;;;;8.20;3.30;;;;;;;11.28;88.62;101707.56;5090949;28;20024;-66
2022/01/02 01:01:05;;;;;;;8.88;3.95;;;;;;;11.20;89.52;101710.31;5091113;28;20077;-66
2022/01/02 01:03:32;;;;;;;6.95;4.28;;;;;;;11.15;89.85;101707.34;5091183;28;20020;-66
2022/01/02 01:06:03;;;;;;;9.40;3.92;;;;;;;11.09;90.56;101697.41;5090910;28;20031;-66
2022/01/02 01:08:31;;;;;;;8.43;3.70;;;;;;;11.05;90.88;101696.91;5090856;28;20035;-66
2022/01/02 01:10:58;;;;;;;9.80;3.05;;;;;;;10.99;91.57;101696.81;5090701;28;20905;-66
2022/01/02 01:13:24;;;;;;;5.47;2.85;;;;;;;10.96;91.54;101693.47;5090704;28;20020;-66
2022/01/02 01:15:50;;;;;;;16.45;5.05;;;;;;;10.90;91.84;101691.53;5090473;28;20502;-66
2022/01/02 01:18:15;;;;;;;7.10;3.10;;;;;;;10.92;92.01;101684.16;5090697;28;20105;-66
2022/01/02 01:20:43;;;;;;;9.60;4.13;;;;;;;10.91;93.04;101669.16;5071262;28;20032;-66
2022/01/02 01:23:17;;;;;;;12.52;3.58;;;;;;;10.91;93.23;101677.16;5090491;28;20039;-66
2022/01/02 01:25:45;;;;;;;10.00;3.50;;;;;;;10.91;93.39;101673.69;5090699;28;20095;-66
2022/01/02 01:28:12;;;;;;;7.65;3.42;;;;;;;10.92;93.53;101670.00;5090633;28;20058;-66
2022/01/02 01:30:38;;;;;;;8.32;3.65;;;;;;;10.91;94.08;101668.34;5090604;28;20024;-66
2022/01/02 01:33:03;;;;;;;7.90;3.25;;;;;;;10.91;94.09;101673.69;5090504;28;20036;-66
2022/01/02 01:35:29;;;;;;;9.00;3.58;;;;;;;10.90;94.23;101672.84;5090422;28;20987;-66
2022/01/02 01:37:54;;;;;;;7.50;3.13;;;;;;;10.89;94.05;101660.50;5090380;28;20036;-66
2022/01/02 01:40:20;;;;;;;8.27;3.20;;;;;;;10.90;94.37;101648.84;5090128;28;20388;-66
2022/01/02 01:43:02;;;;;;;6.45;3.00;;;;;;;10.90;94.43;101648.84;5090109;28;20028;-66
2022/01/02 01:45:29;;;;;;;6.75;3.33;;;;;;;10.89;94.59;101631.16;5090254;28;20115;-66
2022/01/02 01:47:57;;;;;;;9.70;3.70;;;;;;;10.91;94.38;101629.13;5090228;28;20391;-66
2022/01/02 01:50:31;;;;;;;7.28;2.72;;;;;;;10.94;94.95;101634.09;5090156;28;20059;-66
2022/01/02 01:52:57;;;;;;;8.40;3.40;;;;;;;10.95;94.53;101637.59;5090017;28;20428;-66
2022/01/02 01:55:22;;;;;;;12.25;3.75;;;;;;;11.03;95.01;101637.56;5089869;28;20115;-66
2022/01/02 01:57:51;;;;;;;12.07;3.95;;;;;;;11.05;94.57;101632.03;5088831;28;20032;-66
2022/01/02 02:00:19;;;;;;;11.27;3.97;;;;;;;11.04;94.67;101615.19;5089923;28;20075;-66
2022/01/02 02:02:44;;;;;;;8.85;3.70;;;;;;;11.06;94.26;101615.84;5089971;28;20548;-66
2022/01/02 02:05:11;;;;;;;8.40;3.55;;;;;;;11.08;94.00;101613.81;5089696;28;20035;-66
2022/01/02 02:07:41;;;;;;;12.68;3.80;;;;;;;11.09;94.03;101606.63;5089884;28;20032;-66
2022/01/02 02:10:38;;;;;;;7.72;2.88;;;;;;;11.10;93.89;101594.94;5089777;28;20027;-66
2022/01/02 02:13:05;;;;;;;7.50;2.90;;;;;;;11.10;93.70;101597.59;5069801;28;20048;-66
2022/01/02 02:15:30;;;;;;;10.50;4.30;;;;;;;11.12;93.86;101601.75;5089730;28;20058;-66
2022/01/02 02:17:56;;;;;;;10.05;3.50;;;;;;;11.14;93.91;101585.56;5089634;28;20082;-66
2022/01/02 02:20:29;;;;;;;11.40;3.08;;;;;;;11.15;93.51;101582.69;5089516;28;20034;-66
2022/01/02 02:22:56;;;;;;;10.35;3.38;;;;;;;11.16;93.43;101578.19;5089458;28;20386;-66
2022/01/02 02:25:25;;;;;;;7.32;3.78;;;;;;;11.18;93.85;101581.50;5089421;28;20130;-66
2022/01/02 02:27:59;;;;;;;6.97;3.03;;;;;;;11.18;93.92;101585.00;5088841;28;20478;-66
2022/01/02 02:30:30;;;;;;;10.25;2.75;;;;;;;11.15;93.88;101565.84;5069892;28;20090;-66
2022/01/02 02:32:57;;;;;;;11.90;3.65;;;;;;;11.18;93.57;101566.31;5089569;28;20895;-66
2022/01/02 02:35:24;;;;;;;7.97;3.10;;;;;;;11.18;93.50;101555.63;5089429;28;20109;-66
2022/01/02 02:37:50;;;;;;;8.30;3.88;;;;;;;11.19;93.62;101556.47;5088110;28;20024;-66
2022/01/02 02:40:18;;;;;;;12.05;3.58;;;;;;;11.19;93.69;101551.13;5089312;28;20069;-66
2022/01/02 02:42:52;;;;;;;8.50;3.60;;;;;;;11.17;93.24;101551.31;5089276;28;20471;-66
2022/01/02 02:51:08;;;;;;;10.07;4.90;;;;;;;11.11;92.77;101538.69;5070242;28;20047;-66
2022/01/02 02:53:38;;;;;;;13.45;5.03;;;;;;;11.10;93.17;101542.38;5088855;28;20028;-66
2022/01/02 02:56:14;;;;;;;7.22;3.63;;;;;;;11.07;93.14;101541.91;5089209;28;20040;-66
2022/01/02 02:58:41;;;;;;;5.78;3.60;;;;;;;11.06;92.86;101514.41;5089327;28;20463;-66
2022/01/02 03:01:09;;;;;;;9.50;3.00;;;;;;;11.05;93.05;101518.06;5089232;28;20028;-66
2022/01/02 03:03:34;;;;;;;8.40;3.45;;;;;;;11.03;93.14;101512.09;5089168;28;20024;-66
2022/01/02 03:06:00;;;;;;;7.07;3.35;;;;;;;11.08;92.95;101517.72;5088912;28;20470;-66
2022/01/02 03:08:27;;;;;;;9.98;3.60;;;;;;;11.08;92.98;101520.38;5089184;28;20036;-66
2022/01/02 03:10:52;;;;;;;9.75;3.17;;;;;;;11.08;93.03;101517.72;5088970;28;20032;-66
2022/01/02 03:13:17;;;;;;;7.68;3.83;;;;;;;11.03;93.27;101513.91;5089108;28;20035;-66
2022/01/02 03:15:43;;;;;;;7.38;3.15;;;;;;;11.00;93.04;101515.09;5089012;28;20067;-67
2022/01/02 03:18:08;;;;;;;7.28;3.20;;;;;;;11.02;93.39;101526.44;5089013;28;20099;-66
2022/01/02 03:20:33;;;;;;;9.23;4.38;;;;;;;11.00;93.36;101530.31;5087595;28;20455;-66
2022/01/02 03:22:59;;;;;;;13.00;3.80;;;;;;;10.97;93.74;101532.31;5089011;28;20032;-66
2022/01/02 03:25:24;;;;;;;12.65;3.80;;;;;;;10.97;93.88;101513.63;5087470;28;20039;-66
2022/01/02 03:27:49;;;;;;;10.38;3.72;;;;;;;10.95;94.01;101521.03;5088801;28;20483;-66
2022/01/02 03:30:15;;;;;;;9.05;4.28;;;;;;;10.93;94.30;101528.38;5089044;28;20028;-66
2022/01/02 03:32:40;;;;;;;8.05;2.90;;;;;;;10.90;94.52;101531.41;5068598;28;20074;-66
2022/01/02 03:35:07;;;;;;;11.98;3.45;;;;;;;10.89;94.37;101528.91;5069358;28;20038;-66
2022/01/02 03:37:33;;;;;;;9.15;3.10;;;;;;;10.87;94.64;101539.78;5069211;28;20016;-66
2022/01/02 03:40:00;;;;;;;9.23;3.80;;;;;;;10.87;94.84;101529.09;5090549;28;20082;-66
2022/01/02 03:42:26;;;;;;;9.60;3.22;;;;;;;10.83;94.87;101525.13;5092527;28;20031;-66
2022/01/02 03:44:51;;;;;;;7.03;3.13;;;;;;;10.85;95.24;101528.47;5091179;28;20032;-66
2022/01/02 03:47:18;;;;;;;8.52;3.92;;;;;;;10.84;95.40;101526.78;5092358;28;20025;-66
2022/01/02 03:49:43;;;;;;;11.50;4.55;;;;;;;10.82;95.50;101520.81;5092372;28;20053;-66
2022/01/02 03:52:09;;;;;;;10.13;4.60;;;;;;;10.80;95.72;101528.16;5083467;28;20036;-66
2022/01/02 03:54:35;;;;;;;8.20;3.13;;;;;;;10.80;96.04;101519.34;5072886;28;20101;-66
2022/01/02 03:57:00;;;;;;;9.20;3.47;;;;;;;10.78;96.06;101516.03;5072877;28;20456;-66
2022/01/02 03:59:26;;;;;;;5.50;3.40;;;;;;;10.75;96.26;101507.34;5072873;28;20055;-66
2022/01/02 04:01:51;;;;;;;7.90;3.42;;;;;;;10.73;96.60;101508.56;5072670;28;20078;-66
2022/01/02 04:04:17;;;;;;;11.10;3.67;;;;;;;10.68;96.62;101498.41;5072795;28;20024;-66
2022/01/02 04:06:42;;;;;;;11.82;4.25;;;;;;;10.69;96.55;101491.25;5072548;28;20036;-66
2022/01/02 04:09:08;;;;;;;8.40;3.42;;;;;;;10.64;96.78;101483.81;5072689;28;20040;-66
2022/01/02 04:11:33;;;;;;;9.20;3.63;;;;;;;10.66;96.84;101479.13;5071291;28;20033;-66
2022/01/02 04:13:59;;;;;;;9.98;3.10;;;;;;;10.66;96.86;101480.94;5072660;28;20119;-66
2022/01/02 04:16:24;;;;;;;11.70;3.20;;;;;;;10.65;96.96;101476.63;5072469;28;20028;-66
2022/01/02 04:18:50;;;;;;;8.95;3.42;;;;;;;10.66;97.06;101462.25;5072428;28;20055;-66
2022/01/02 04:21:16;;;;;;;9.93;4.88;;;;;;;10.65;97.05;101455.28;5072450;28;20028;-66
2022/01/02 04:23:41;;;;;;;9.45;2.83;;;;;;;10.67;97.02;101453.25;5091460;28;20036;-66
2022/01/02 04:26:07;;;;;;;11.52;3.72;;;;;;;10.67;96.79;101454.09;5091713;28;20032;-66
2022/01/02 04:28:32;;;;;;;7.40;3.03;;;;;;;10.70;96.51;101451.03;5091536;28;20060;-66
2022/01/02 04:30:57;;;;;;;10.85;3.33;;;;;;;10.72;96.60;101456.22;5091552;28;20111;-66
2022/01/02 04:33:23;;;;;;;9.77;3.78;;;;;;;10.74;96.45;101459.50;5091433;28;20114;-66
2022/01/02 04:35:48;;;;;;;6.70;3.58;;;;;;;10.77;95.86;101452.97;5091814;28;20116;-66
2022/01/02 04:38:14;;;;;;;6.45;3.10;;;;;;;10.78;96.50;101452.81;5091462;28;20063;-66
2022/01/02 04:40:40;;;;;;;13.30;4.35;;;;;;;10.79;96.57;101456.28;5091610;28;20081;-66
2022/01/02 04:43:06;;;;;;;8.68;3.38;;;;;;;10.77;96.24;101453.81;5091379;28;20032;-66
2022/01/02 04:45:32;;;;;;;7.30;2.70;;;;;;;10.78;96.38;101446.66;5089986;28;20042;-66
2022/01/02 04:47:57;;;;;;;7.25;2.75;;;;;;;10.76;96.56;101446.81;5089973;28;20360;-66
2022/01/02 04:50:23;;;;;;;7.20;3.05;;;;;;;10.70;96.75;101442.22;5091444;28;20475;-66
2022/01/02 04:52:49;;;;;;;8.75;3.80;;;;;;;10.68;96.85;101430.91;5090760;28;20028;-66
2022/01/02 04:55:14;;;;;;;8.18;3.33;;;;;;;10.65;96.81;101426.75;5091231;28;20036;-66
2022/01/02 04:57:39;;;;;;;8.98;3.50;;;;;;;10.64;97.18;101424.28;5090970;28;20032;-66
2022/01/02 05:00:06;;;;;;;7.60;3.55;;;;;;;10.59;97.44;101416.81;5090813;28;20403;-66
2022/01/02 05:02:32;;;;;;;7.22;3.50;;;;;;;10.56;97.40;101400.34;5090878;28;20036;-66
2022/01/02 05:04:57;;;;;;;10.65;4.15;;;;;;;10.58;97.70;101406.34;5090777;28;20382;-66
2022/01/02 05:07:23;;;;;;;7.70;3.15;;;;;;;10.55;97.40;101398.69;5089479;28;20031;-67
2022/01/02 05:09:48;;;;;;;7.63;3.45;;;;;;;10.54;97.60;101389.88;5091142;28;20028;-66
2022/01/02 05:12:14;;;;;;;10.10;4.57;;;;;;;10.53;97.59;101375.72;5090804;28;20073;-66
2022/01/02 05:14:39;;;;;;;6.65;2.72;;;;;;;10.52;97.74;101373.22;5090870;28;20024;-66
2022/01/02 05:17:04;;;;;;;11.02;3.30;;;;;;;10.52;97.67;101371.38;5090583;28;20372;-67
2022/01/02 05:19:30;;;;;;;10.57;3.33;;;;;;;10.52;97.63;101366.03;5090698;28;20382;-66
2022/01/02 05:21:57;;;;;;;6.07;2.90;;;;;;;10.51;97.56;101361.72;5090741;28;20078;-66
2022/01/02 05:24:22;;;;;;;7.15;3.83;;;;;;;10.50;97.76;101362.72;5090575;28;20036;-66
2022/01/02 05:26:48;;;;;;;10.93;4.82;;;;;;;10.47;97.62;101363.09;5090375;28;20047;-66
2022/01/02 05:29:15;;;;;;;9.95;3.90;;;;;;;10.44;98.01;101354.66;5090400;28;21095;-66
2022/01/02 05:31:40;;;;;;;9.77;3.15;;;;;;;10.42;98.06;101344.16;5090328;28;20093;-66
2022/01/02 05:34:05;;;;;;;6.32;2.80;;;;;;;10.47;98.00;101351.59;5090529;28;20024;-66
2022/01/02 05:36:31;;;;;;;7.97;3.95;;;;;;;10.48;97.84;101348.78;5090315;28;20517;-66
2022/01/02 05:38:56;;;;;;;9.57;3.33;;;;;;;10.47;97.84;101341.75;5090339;28;20042;-66
2022/01/02 05:41:22;;;;;;;9.73;2.92;;;;;;;10.48;97.99;101342.63;5090591;28;20395;-66
2022/01/02 05:43:47;;;;;;;8.73;2.92;;;;;;;10.46;98.12;101337.44;5090346;28;20034;-66
2022/01/02 05:46:12;;;;;;;7.30;3.00;;;;;;;10.45;98.32;101335.81;5089984;28;20286;-66
2022/01/02 05:48:38;;;;;;;8.52;3.50;;;;;;;10.41;98.05;101333.69;5090245;28;20123;-66
2022/01/02 05:51:03;;;;;;;4.07;2.40;;;;;;;10.44;98.33;101331.47;5070640;28;20028;-66
2022/01/02 05:53:30;;;;;;;6.57;4.47;;;;;;;10.42;98.46;101322.00;5070720;28;20148;-66
2022/01/02 05:55:56;;;;;;;7.30;3.90;;;;;;;10.39;98.50;101312.53;5070512;28;20056;-66
2022/01/02 05:58:21;;;;;;;6.30;2.85;;;;;;;10.38;98.58;101324.22;5070684;28;20111;-66
2022/01/02 06:00:47;;;;;;;9.32;3.38;;;;;;;10.36;98.65;101307.56;5069167;28;20038;-66
2022/01/02 06:03:12;;;;;;;9.30;3.33;;;;;;;10.36;98.67;101288.09;5069682;28;20032;-66
2022/01/02 06:05:37;;;;;;;9.38;3.65;;;;;;;10.36;98.66;101277.41;5070688;28;20041;-66
2022/01/02 06:08:03;;;;;;;10.60;3.28;;;;;;;10.35;98.76;101278.41;5069292;28;20158;-66
2022/01/02 06:10:28;;;;;;;12.30;4.57;;;;;;;10.35;98.49;101263.25;5070282;28;20036;-66
2022/01/02 06:12:53;;;;;;;9.25;3.38;;;;;;;10.36;98.26;101254.25;5070338;28;20078;-66
2022/01/02 06:15:19;;;;;;;8.38;3.35;;;;;;;10.36;98.15;101235.56;5070224;28;20025;-66
2022/01/02 06:17:44;;;;;;;9.85;3.70;;;;;;;10.38;98.19;101228.22;5070324;28;20024;-66
2022/01/02 06:20:10;;;;;;;23.63;4.03;;;;;;;10.38;98.35;101236.22;5089620;28;20032;-66
2022/01/02 06:22:35;;;;;;;10.77;3.30;;;;;;;10.39;98.16;101235.19;5088227;28;20032;-66
2022/01/02 06:25:01;;;;;;;6.53;3.10;;;;;;;10.40;97.63;101225.34;5089246;28;20047;-66
2022/01/02 06:27:26;;;;;;;8.98;3.90;;;;;;;10.40;97.41;101218.22;5087937;28;20139;-66
2022/01/02 06:29:51;;;;;;;8.20;3.00;;;;;;;10.45;97.47;101223.81;5089311;28;20595;-66
2022/01/02 06:32:17;;;;;;;7.30;2.72;;;;;;;10.46;96.89;101192.63;5089437;28;20065;-67
2022/01/02 06:34:44;;;;;;;6.30;2.95;;;;;;;10.46;96.97;101182.78;5089409;28;20038;-66
2022/01/02 06:37:09;;;;;;;10.63;3.65;;;;;;;10.47;97.00;101180.94;5089357;28;20541;-66
2022/01/02 06:39:35;;;;;;;7.30;3.88;;;;;;;10.47;96.57;101163.09;5089427;28;20032;-66
2022/01/02 06:42:00;;;;;;;9.57;3.70;;;;;;;10.44;96.53;101155.47;5089453;28;20085;-66
2022/01/02 06:44:25;;;;;;;10.85;3.28;;;;;;;10.47;96.46;101144.41;5069902;28;20086;-66
2022/01/02 06:46:51;;;;;;;5.47;2.83;;;;;;;10.47;96.75;101141.75;5070013;28;20376;-66
2022/01/02 06:49:16;;;;;;;7.07;3.10;;;;;;;10.47;96.28;101131.09;5069924;28;20040;-66
2022/01/02 06:51:42;;;;;;;10.63;2.95;;;;;;;10.47;96.08;101123.09;5070082;28;20024;-66
2022/01/02 06:54:07;;;;;;;6.30;2.60;;;;;;;10.44;96.16;101110.16;5069910;28;20036;-66
2022/01/02 06:56:32;;;;;;;8.00;3.40;;;;;;;10.45;95.48;101094.97;5069891;28;20392;-66
2022/01/02 06:58:58;;;;;;;4.93;3.08;;;;;;;10.46;95.10;101089.44;5089046;28;20119;-66
2022/01/02 07:01:23;;;;;;;14.50;4.28;;;;;;;10.47;95.19;101100.94;5089111;28;20550;-66
2022/01/02 07:03:48;;;;;;;5.80;3.15;;;;;;;10.46;95.83;101091.31;5089075;28;20119;-66
2022/01/02 07:06:14;;;;;;;3.30;2.15;;;;;;;10.46;95.39;101094.78;5088990;28;20028;-66
2022/01/02 07:08:39;;;;;;;7.05;4.03;;;;;;;10.45;95.44;101081.63;5089022;28;20044;-66
2022/01/02 07:11:05;;;;;;;10.68;3.25;;;;;;;10.47;94.97;101076.94;5088860;28;20028;-66
2022/01/02 07:13:31;;;;;;;3.28;2.40;;;;;;;10.46;95.03;101059.31;5089149;28;20487;-66
2022/01/02 07:15:56;;;;;;;8.40;2.47;;;;;;;10.48;94.68;101075.94;5092540;28;20051;-66
2022/01/02 07:18:21;;;;;;;8.27;3.72;;;;;;;10.49;94.27;101069.59;5093059;28;20038;-66
2022/01/02 07:20:47;;;;;;;4.47;2.80;;;;;;;10.52;93.96;101079.88;5093036;28;20119;-66
2022/01/02 07:23:12;;;;;;;6.53;2.88;;;;;;;10.53;93.55;101084.16;5092581;28;20039;-66
2022/01/02 07:25:37;;;;;;;6.97;2.92;;;;;;;10.53;93.51;101090.34;5092765;28;20028;-66
2022/01/02 07:28:03;;;;;;;8.02;2.90;;;;;;;10.53;93.32;101086.84;5092508;28;20063;-66
2022/01/02 07:30:28;;;;;;;7.72;3.40;;;;;;;10.55;93.28;101108.00;5092662;28;20063;-66
2022/01/02 07:32:54;;;;;;;3.63;2.63;;;;;;;10.55;93.70;101106.16;5092779;28;20047;-66
2022/01/02 07:35:19;;;;;;;5.82;3.45;;;;;;;10.52;93.72;101090.53;5091387;28;20028;-66
2022/01/02 07:37:44;;;;;;;6.82;3.72;;;;;;;10.51;93.36;101067.56;5092647;28;20034;-66
2022/01/02 07:40:10;;;;;;;11.93;3.72;;;;;;;10.48;93.79;101068.75;5091197;28;20028;-66
2022/01/02 07:42:36;;;;;;;8.90;2.90;;;;;;;10.47;93.33;101061.75;5092641;28;20063;-66
2022/01/02 07:45:02;;;;;;;4.00;2.35;;;;;;;10.46;93.60;101056.63;5092466;28;20073;-66
2022/01/02 07:47:28;;;;;;;6.97;3.38;;;;;;;10.43;93.49;101068.50;5092390;28;20031;-66
2022/01/02 07:49:53;;;;;;;4.88;2.42;;;;;;;10.42;93.17;101074.84;5092206;28;20027;-66
2022/01/02 07:52:19;;;;;;;8.88;3.13;;;;;;;10.43;92.75;101067.69;5092424;28;20130;-66
2022/01/02 07:54:44;;;;;;;5.68;2.47;;;;;;;10.45;93.05;101063.81;5091182;28;20035;-66
2022/01/02 07:57:09;;;;;;;4.03;2.30;;;;;;;10.50;91.61;101072.03;5092218;28;20491;-66
2022/01/02 07:59:34;;;;;;;5.03;2.90;;;;;;;10.54;92.25;101091.16;5092240;28;20482;-66
2022/01/02 08:02:00;;;;;;;7.47;2.97;;;;;;;10.56;92.16;101065.16;5090686;28;20500;-66
2022/01/02 08:04:25;;;;;;;7.25;3.00;;;;;;;10.57;92.96;101111.31;5092164;28;20074;-66
2022/01/02 08:06:51;;;;;;;6.57;3.42;;;;;;;10.54;93.27;101120.50;5091913;28;20024;-66
2022/01/02 08:09:16;;;;;;;4.18;2.45;;;;;;;10.50;93.16;101125.38;5091959;28;20032;-66
2022/01/02 08:11:42;;;;;;;8.52;2.88;;;;;;;10.48;93.66;101124.75;5091856;28;20456;-66
2022/01/02 08:14:07;;;;;;;4.47;2.22;;;;;;;10.45;93.73;101097.63;5092013;28;20055;-66
2022/01/02 08:16:34;;;;;;;6.72;2.70;;;;;;;10.41;93.90;101089.19;5091956;28;20040;-66
2022/01/02 08:18:59;;;;;;;5.28;2.47;;;;;;;10.38;94.19;101102.91;5091835;28;20024;-66
2022/01/02 08:21:25;;;;;;;4.00;2.67;;;;;;;10.36;94.36;101098.78;5091937;28;20097;-66
2022/01/02 08:23:50;;;;;;;5.88;2.33;;;;;;;10.37;94.11;101103.09;5091968;28;20062;-66
2022/01/02 08:26:15;;;;;;;8.82;3.67;;;;;;;10.41;94.11;101115.84;5089309;28;20040;-66
2022/01/02 08:28:41;;;;;;;6.95;2.70;;;;;;;10.42;93.40;101106.84;5091553;28;20052;-66
2022/01/02 08:31:06;;;;;;;4.90;2.90;;;;;;;10.46;92.82;101112.63;5091541;28;20024;-66
2022/01/02 08:33:32;;;;;;;4.97;2.92;;;;;;;10.48;93.20;101114.09;5091544;28;20475;-66
2022/01/02 08:35:57;;;;;;;5.80;3.08;;;;;;;10.48;92.50;101103.44;5091578;28;20020;-66
2022/01/02 08:38:23;;;;;;;7.85;2.75;;;;;;;10.50;92.73;101077.38;5090190;28;20058;-66
2022/01/02 08:40:49;;;;;;;5.00;2.10;;;;;;;10.48;92.82;101052.75;5091452;28;20032;-66
2022/01/02 08:43:14;;;;;;;4.75;2.47;;;;;;;10.49;93.43;101101.59;5091135;28;20386;-66
2022/01/02 08:45:40;;;;;;;10.15;3.10;;;;;;;10.48;93.31;101099.94;5091467;28;20028;-66
2022/01/02 08:48:05;;;;;;;6.18;2.50;;;;;;;10.46;92.85;101081.44;5089816;28;20069;-67
2022/01/02 08:50:31;;;;;;;4.50;2.55;;;;;;;10.46;92.30;101091.31;5091191;28;20039;-67
2022/01/02 08:52:57;;;;;;;5.53;2.80;;;;;;;10.48;92.58;101090.09;5091134;28;20031;-67
2022/01/02 08:55:22;;;;;;;3.92;2.50;;;;;;;10.56;91.64;101097.16;5091185;28;20024;-67
2022/01/02 08:57:48;;;;;;;4.80;2.58;;;;;;;10.62;91.02;101103.56;5090969;28;20024;-67
2022/01/02 09:00:15;;;;;;;7.03;3.55;;;;;;;10.70;90.06;101096.25;5071867;28;20055;-71
2022/01/02 09:02:41;;;;;;;8.57;3.03;;;;;;;10.79;89.79;101101.44;5090774;28;20039;-71
2022/01/02 09:05:08;;;;;;;5.13;2.95;;;;;;;10.79;89.04;101096.94;5090937;28;20035;-71
2022/01/02 09:07:34;;;;;;;6.82;2.70;;;;;;;10.88;89.09;101105.63;5090663;28;20047;-71
2022/01/02 09:09:59;;;;;;;7.53;3.08;;;;;;;10.91;88.04;101098.06;5090723;28;20031;-71
2022/01/02 09:12:24;;;;;;;8.80;3.30;;;;;;;10.93;88.20;101095.22;5077364;28;20059;-71
2022/01/02 09:14:50;;;;;;;8.57;3.42;;;;;;;10.90;88.29;101091.09;5071272;28;20036;-71
2022/01/02 09:17:15;;;;;;;7.00;3.35;;;;;;;10.87;87.73;101088.81;5071275;28;20028;-71
2022/01/02 09:19:40;;;;;;;5.03;2.90;;;;;;;10.92;87.43;101091.69;5071170;28;20119;-71
2022/01/02 09:22:06;;;;;;;4.38;2.72;;;;;;;10.97;87.03;101088.47;5071354;28;20033;-71
2022/01/02 09:24:31;;;;;;;5.20;3.13;;;;;;;11.05;86.60;101092.84;5090415;28;20082;-72
2022/01/02 09:26:57;;;;;;;4.65;3.03;;;;;;;11.13;86.95;101092.69;5090343;28;20036;-71
2022/01/02 09:29:23;;;;;;;7.78;4.30;;;;;;;11.17;86.29;101086.78;5090213;28;20151;-71
2022/01/02 09:31:49;;;;;;;7.15;3.97;;;;;;;11.23;86.35;101095.84;5090425;28;20107;-71
2022/01/02 09:34:15;;;;;;;9.57;3.55;;;;;;;11.29;85.90;101091.56;5083995;28;20383;-72
2022/01/02 09:36:40;;;;;;;7.80;3.92;;;;;;;11.43;86.70;101098.66;5072783;28;20032;-72
2022/01/02 09:39:06;;;;;;;9.30;3.85;;;;;;;11.60;85.53;101091.94;5073377;28;20047;-73
2022/01/02 09:41:31;;;;;;;6.80;3.90;;;;;;;11.74;85.81;101100.88;5081434;28;20387;-75
2022/01/02 09:43:57;;;;;;;8.88;3.80;;;;;;;11.87;84.41;101097.47;5090074;28;20042;-75
2022/01/02 09:46:26;;;;;;;8.07;3.40;;;;;;;11.93;84.69;101098.53;5085625;28;20032;-75
2022/01/02 09:48:53;;;;;;;5.85;3.20;;;;;;;11.94;84.32;101110.84;5090151;28;20038;-75
2022/01/02 09:51:24;;;;;;;8.98;4.88;;;;;;;11.89;84.18;101113.31;5088615;28;20115;-74
2022/01/02 09:53:50;;;;;;;10.13;4.68;;;;;;;11.89;84.70;101115.97;5078506;28;20036;-69
2022/01/02 09:56:16;;;;;;;11.60;4.43;;;;;;;11.85;85.02;101105.66;5081396;28;20028;-69
2022/01/02 09:58:43;;;;;;;10.38;3.95;;;;;;;11.79;84.60;101110.97;5073486;28;20051;-71
2022/01/02 10:01:17;;;;;;;9.85;4.75;;;;;;;11.77;85.21;101108.50;5090022;28;20475;-72
2022/01/02 10:03:50;;;;;;;11.18;4.00;;;;;;;11.80;85.54;101099.25;5089976;28;20036;-72
2022/01/02 10:06:17;;;;;;;8.80;4.88;;;;;;;11.87;85.49;101102.81;5089861;28;20039;-72
2022/01/02 10:08:43;;;;;;;8.35;3.55;;;;;;;11.94;84.35;101117.03;5089772;28;20028;-72
2022/01/02 10:11:17;;;;;;;12.30;5.90;;;;;;;12.03;84.29;101112.34;5070400;28;20039;-72
2022/01/02 10:13:59;;;;;;;11.63;4.05;;;;;;;12.03;84.39;101097.13;5089601;28;20032;-72
2022/01/02 10:16:39;;;;;;;9.65;4.68;;;;;;;12.28;84.03;101104.59;5089745;28;20034;-72
2022/01/02 10:19:28;;;;;;;10.90;4.85;;;;;;;12.43;83.69;101104.44;5088968;28;20028;-72
2022/01/02 10:21:58;;;;;;;8.30;4.07;;;;;;;12.43;82.74;101101.75;5070312;28;20032;-72
2022/01/02 10:24:27;;;;;;;6.15;3.90;;;;;;;12.35;82.12;101102.78;5089706;28;20040;-72
2022/01/02 10:27:21;;;;;;;6.88;2.97;;;;;;;12.36;82.72;101117.78;5088058;28;20510;-72
2022/01/02 10:30:01;;;;;;;6.40;3.90;;;;;;;12.37;83.84;101108.75;5088633;28;20078;-72
2022/01/02 10:32:29;;;;;;;8.20;4.35;;;;;;;12.33;82.68;101106.69;5089342;28;20158;-72
2022/01/02 10:35:10;;;;;;;10.95;4.10;;;;;;;12.30;82.14;101109.75;5085878;28;20059;-72
2022/01/02 10:37:36;;;;;;;8.95;4.30;;;;;;;12.28;82.51;101104.59;5080724;28;20028;-72
2022/01/02 10:40:01;;;;;;;8.63;3.92;;;;;;;12.29;82.99;101106.25;5069970;28;20096;-72
2022/01/02 10:42:27;;;;;;;6.10;3.38;;;;;;;12.31;82.79;101092.66;5070051;28;20099;-72
2022/01/02 10:44:53;;;;;;;5.88;3.35;;;;;;;12.29;83.52;101092.88;5052078;28;20042;-73
2022/01/02 10:47:26;;;;;;;10.13;4.85;;;;;;;12.34;82.48;101100.28;5083969;28;20044;-72
2022/01/02 10:50:06;;;;;;;6.35;3.65;;;;;;;12.28;82.61;101077.84;5088294;28;20110;-72
2022/01/02 10:52:38;;;;;;;8.80;3.85;;;;;;;12.26;82.75;101091.44;5089251;28;20024;-72
2022/01/02 10:55:27;;;;;;;6.90;3.35;;;;;;;12.30;83.20;101091.03;5071780;28;20502;-72
2022/01/02 10:57:57;;;;;;;6.80;3.47;;;;;;;12.29;82.83;101090.22;5069776;28;20016;-72
2022/01/02 11:00:27;;;;;;;8.18;3.92;;;;;;;12.25;83.04;101080.94;5089053;28;20099;-72
2022/01/02 11:02:54;;;;;;;11.27;5.25;;;;;;;12.28;83.23;101083.19;5088981;28;20032;-72
2022/01/02 11:05:22;;;;;;;5.63;3.47;;;;;;;12.32;83.24;101083.63;5073994;28;20035;-72
2022/01/02 11:07:54;;;;;;;9.80;4.13;;;;;;;12.26;82.48;101082.56;5088496;28;20032;-72
2022/01/02 11:10:23;;;;;;;9.55;3.67;;;;;;;12.25;83.13;101086.28;5088989;28;20028;-72
2022/01/02 11:12:51;;;;;;;10.48;4.03;;;;;;;12.23;83.14;101089.16;5074990;28;20043;-72
2022/01/02 11:15:18;;;;;;;14.27;4.20;;;;;;;12.26;83.42;101085.25;5069614;28;20028;-72
2022/01/02 11:17:44;;;;;;;12.27;4.18;;;;;;;12.28;83.65;101088.56;5086601;28;20048;-72
2022/01/02 11:20:31;;;;;;;8.02;5.22;;;;;;;12.33;83.71;101082.59;5088665;28;20055;-72
2022/01/02 11:23:03;;;;;;;8.32;4.53;;;;;;;12.45;83.12;101081.81;5088586;28;20032;-72
2022/01/02 11:25:31;;;;;;;;;;;;;;;12.53;84.05;101096.84;5089110;28;20024;-72
2022/01/02 11:28:00;;;;;;;7.93;3.63;;;;;;;12.59;82.13;101074.63;5088731;28;20006;-72
2022/01/02 11:30:28;;;;;;;8.13;3.47;;;;;;;12.67;81.94;101068.25;5088403;28;20048;-72